sensor_id;sensor_type;location;lat;lon;timestamp;pressure;altitude;pressure_sealevel;temperature;humidity
21588;BME280;10956;48.878;13.316;2022-09-20T00:00:26;94399.38;;;8.33;100.00
21588;BME280;10956;48.878;13.316;2022-09-20T00:02:51;94408.34;;;8.37;100.00
21588;BME280;10956;48.878;13.316;2022-09-20T00:05:17;94409.44;;;8.41;100.00
21588;BME280;10956;48.878;13.316;2022-09-20T00:07:43;94414.69;;;8.41;100.00
21588;BME280;10956;48.878;13.316;2022-09-20T00:10:09;94403.69;;;8.44;100.00
21588;BME280;10956;48.878;13.316;2022-09-20T00:12:35;94403.63;;;8.39;100.00
21588;BME280;10956;48.878;13.316;2022-09-20T00:15:00;94405.75;;;8.42;100.00
21588;BME280;10956;48.878;13.316;2022-09-20T00:17:25;94404.19;;;8.41;100.00
21588;BME280;10956;48.878;13.316;2022-09-20T00:19:51;94405.75;;;8.42;100.00
21588;BME280;10956;48.878;13.316;2022-09-20T00:22:16;94396.84;;;8.43;100.00
21588;BME280;10956;48.878;13.316;2022-09-20T00:24:41;94402.09;;;8.43;100.00
21588;BME280;10956;48.878;13.316;2022-09-20T00:27:07;94405.28;;;8.45;100.00
21588;BME280;10956;48.878;13.316;2022-09-20T00:29:32;94394.75;;;8.45;100.00
21588;BME280;10956;48.878;13.316;2022-09-20T00:31:57;94393.19;;;8.44;100.00
21588;BME280;10956;48.878;13.316;2022-09-20T00:34:23;94394.75;;;8.45;100.00
21588;BME280;10956;48.878;13.316;2022-09-20T00:37:07;94390.81;;;8.43;100.00
21588;BME280;10956;48.878;13.316;2022-09-20T00:39:32;94391.59;;;8.43;100.00
21588;BME280;10956;48.878;13.316;2022-09-20T00:41:57;94390.81;;;8.43;100.00
21588;BME280;10956;48.878;13.316;2022-09-20T00:44:46;94391.59;;;8.43;100.00
21588;BME280;10956;48.878;13.316;2022-09-20T00:49:45;94392.59;;;8.37;100.00
21588;BME280;10956;48.878;13.316;2022-09-20T00:52:11;94387.34;;;8.37;100.00
21588;BME280;10956;48.878;13.316;2022-09-20T00:54:36;94389.47;;;8.40;100.00
21588;BME280;10956;48.878;13.316;2022-09-20T00:57:03;94391.00;;;8.36;100.00
21588;BME280;10956;48.878;13.316;2022-09-20T00:59:34;94395.69;;;8.34;100.00
21588;BME280;10956;48.878;13.316;2022-09-20T01:04:33;94395.22;;;8.37;100.00
21588;BME280;10956;48.878;13.316;2022-09-20T01:07:02;94383.66;;;8.38;100.00
21588;BME280;10956;48.878;13.316;2022-09-20T01:09:29;94388.38;;;8.36;100.00
21588;BME280;10956;48.878;13.316;2022-09-20T01:11:56;94382.63;;;8.39;100.00
21588;BME280;10956;48.878;13.316;2022-09-20T01:14:24;94385.19;;;8.34;100.00
21588;BME280;10956;48.878;13.316;2022-09-20T01:16:53;94389.88;;;8.32;100.00
21588;BME280;10956;48.878;13.316;2022-09-20T01:28:29;94381.44;;;8.30;100.00
21588;BME280;10956;48.878;13.316;2022-09-20T01:34:54;94376.38;;;8.23;100.00
21588;BME280;10956;48.878;13.316;2022-09-20T01:37:27;94379.25;;;8.22;100.00
21588;BME280;10956;48.878;13.316;2022-09-20T01:40:07;94378.72;;;8.20;100.00
21588;BME280;10956;48.878;13.316;2022-09-20T01:42:37;94375.59;;;8.23;100.00
21588;BME280;10956;48.878;13.316;2022-09-20T01:45:22;94378.28;;;8.28;100.00
21588;BME280;10956;48.878;13.316;2022-09-20T01:48:21;94381.00;;;8.33;100.00
21588;BME280;10956;48.878;13.316;2022-09-20T02:20:56;94370.88;;;8.47;100.00
21588;BME280;10956;48.878;13.316;2022-09-20T02:23:37;94369.59;;;8.49;100.00
21588;BME280;10956;48.878;13.316;2022-09-20T02:28:53;94371.19;;;8.50;100.00
21588;BME280;10956;48.878;13.316;2022-09-20T02:31:47;94372.78;;;8.51;100.00
21588;BME280;10956;48.878;13.316;2022-09-20T02:34:28;94371.13;;;8.45;100.00
21588;BME280;10956;48.878;13.316;2022-09-20T02:43:03;94368.50;;;8.45;100.00
21588;BME280;10956;48.878;13.316;2022-09-20T02:46:09;94368.00;;;8.48;100.00
21588;BME280;10956;48.878;13.316;2022-09-20T02:48:35;94372.38;;;8.37;100.00
21588;BME280;10956;48.878;13.316;2022-09-20T02:51:34;94372.06;;;8.34;100.00
21588;BME280;10956;48.878;13.316;2022-09-20T02:54:36;94366.81;;;8.34;100.00
21588;BME280;10956;48.878;13.316;2022-09-20T02:57:27;94370.94;;;8.30;100.00
21588;BME280;10956;48.878;13.316;2022-09-20T03:00:07;94366.50;;;8.30;100.00
21588;BME280;10956;48.878;13.316;2022-09-20T03:05:23;94372.88;;;8.34;100.00
21588;BME280;10956;48.878;13.316;2022-09-20T03:18:40;94380.34;;;8.26;100.00
21588;BME280;10956;48.878;13.316;2022-09-20T03:24:21;94376.28;;;8.35;100.00
21588;BME280;10956;48.878;13.316;2022-09-20T03:26:55;94378.41;;;8.38;100.00
21588;BME280;10956;48.878;13.316;2022-09-20T03:29:39;94378.13;;;8.34;100.00
21588;BME280;10956;48.878;13.316;2022-09-20T03:32:26;94381.84;;;8.38;100.00
21588;BME280;10956;48.878;13.316;2022-09-20T03:46:23;94382.69;;;8.44;100.00
21588;BME280;10956;48.878;13.316;2022-09-20T04:00:07;94387.97;;;8.49;100.00
21588;BME280;10956;48.878;13.316;2022-09-20T04:12:00;94390.66;;;8.54;100.00
21588;BME280;10956;48.878;13.316;2022-09-20T04:14:24;94395.16;;;8.59;100.00
21588;BME280;10956;48.878;13.316;2022-09-20T04:17:14;94396.72;;;8.55;100.00
21588;BME280;10956;48.878;13.316;2022-09-20T04:19:48;94395.38;;;8.52;100.00
21588;BME280;10956;48.878;13.316;2022-09-20T04:22:18;94395.25;;;8.42;100.00
21588;BME280;10956;48.878;13.316;2022-09-20T04:24:53;94398.38;;;8.39;100.00
21588;BME280;10956;48.878;13.316;2022-09-20T04:27:42;94400.50;;;8.42;100.00
21588;BME280;10956;48.878;13.316;2022-09-20T04:30:21;94403.13;;;8.42;100.00
21588;BME280;10956;48.878;13.316;2022-09-20T04:33:02;94406.56;;;8.43;100.00
21588;BME280;10956;48.878;13.316;2022-09-20T04:35:54;94397.94;;;8.47;100.00
21588;BME280;10956;48.878;13.316;2022-09-20T04:38:41;94403.13;;;8.42;100.00
21588;BME280;10956;48.878;13.316;2022-09-20T04:44:17;94405.75;;;8.42;100.00
21588;BME280;10956;48.878;13.316;2022-09-20T04:55:17;94406.97;;;8.56;100.00
21588;BME280;10956;48.878;13.316;2022-09-20T05:28:16;94416.97;;;8.59;100.00
21588;BME280;10956;48.878;13.316;2022-09-20T05:30:49;94432.19;;;8.57;100.00
21588;BME280;10956;48.878;13.316;2022-09-20T05:38:55;94450.19;;;8.27;100.00
21588;BME280;10956;48.878;13.316;2022-09-20T05:47:19;94446.91;;;8.15;100.00
21588;BME280;10956;48.878;13.316;2022-09-20T05:52:58;94446.06;;;8.31;100.00
21588;BME280;10956;48.878;13.316;2022-09-20T06:00:47;94457.13;;;8.55;100.00
21588;BME280;10956;48.878;13.316;2022-09-20T06:03:28;94453.44;;;8.56;100.00
21588;BME280;10956;48.878;13.316;2022-09-20T06:22:42;94457.81;;;8.99;100.00
21588;BME280;10956;48.878;13.316;2022-09-20T06:27:38;94456.34;;;9.08;100.00
21588;BME280;10956;48.878;13.316;2022-09-20T06:30:13;94463.25;;;9.19;100.00
21588;BME280;10956;48.878;13.316;2022-09-20T06:33:19;94460.47;;;9.31;100.00
21588;BME280;10956;48.878;13.316;2022-09-20T06:35:52;94462.31;;;9.30;100.00
21588;BME280;10956;48.878;13.316;2022-09-20T06:41:18;94462.75;;;9.22;100.00
21588;BME280;10956;48.878;13.316;2022-09-20T06:44:02;94458.00;;;9.19;100.00
21588;BME280;10956;48.878;13.316;2022-09-20T06:46:30;94453.75;;;9.13;100.00
21588;BME280;10956;48.878;13.316;2022-09-20T06:48:56;94466.34;;;9.11;100.00
21588;BME280;10956;48.878;13.316;2022-09-20T06:51:23;94459.00;;;9.13;100.00
21588;BME280;10956;48.878;13.316;2022-09-20T06:53:51;94464.31;;;9.18;100.00
21588;BME280;10956;48.878;13.316;2022-09-20T06:56:20;94463.25;;;9.19;100.00
21588;BME280;10956;48.878;13.316;2022-09-20T06:58:47;94459.19;;;9.33;100.00
21588;BME280;10956;48.878;13.316;2022-09-20T07:01:13;94465.59;;;9.48;100.00
21588;BME280;10956;48.878;13.316;2022-09-20T07:03:40;94463.03;;;9.58;100.00
21588;BME280;10956;48.878;13.316;2022-09-20T07:06:05;94465.25;;;9.71;100.00
21588;BME280;10956;48.878;13.316;2022-09-20T07:08:31;94464.78;;;9.84;100.00
21588;BME280;10956;48.878;13.316;2022-09-20T07:11:04;94467.44;;;9.84;100.00
21588;BME280;10956;48.878;13.316;2022-09-20T07:13:30;94467.41;;;9.79;100.00
21588;BME280;10956;48.878;13.316;2022-09-20T07:16:04;94466.88;;;9.82;100.00
21588;BME280;10956;48.878;13.316;2022-09-20T07:18:30;94468.00;;;9.91;100.00
21588;BME280;10956;48.878;13.316;2022-09-20T07:20:58;94473.38;;;10.12;100.00
21588;BME280;10956;48.878;13.316;2022-09-20T07:23:25;94473.06;;;10.50;100.00
21588;BME280;10956;48.878;13.316;2022-09-20T07:25:50;94474.72;;;10.77;100.00
21588;BME280;10956;48.878;13.316;2022-09-20T07:28:16;94473.69;;;10.78;100.00
21588;BME280;10956;48.878;13.316;2022-09-20T07:30:44;94473.91;;;10.71;100.00
21588;BME280;10956;48.878;13.316;2022-09-20T07:33:09;94470.47;;;10.60;100.00
21588;BME280;10956;48.878;13.316;2022-09-20T07:35:36;94484.63;;;10.44;100.00
21588;BME280;10956;48.878;13.316;2022-09-20T07:38:01;94489.81;;;10.24;100.00
21588;BME280;10956;48.878;13.316;2022-09-20T07:40:27;94490.16;;;10.00;100.00
21588;BME280;10956;48.878;13.316;2022-09-20T07:42:55;94481.03;;;9.71;100.00
21588;BME280;10956;48.878;13.316;2022-09-20T07:45:21;94490.41;;;9.57;100.00
21588;BME280;10956;48.878;13.316;2022-09-20T07:47:46;94487.06;;;9.34;100.00
21588;BME280;10956;48.878;13.316;2022-09-20T07:50:12;94483.88;;;9.32;100.00
21588;BME280;10956;48.878;13.316;2022-09-20T07:52:37;94489.19;;;9.37;100.00
21588;BME280;10956;48.878;13.316;2022-09-20T07:55:03;94491.97;;;9.58;100.00
21588;BME280;10956;48.878;13.316;2022-09-20T07:57:28;94495.53;;;9.74;100.00
21588;BME280;10956;48.878;13.316;2022-09-20T07:59:59;94504.69;;;9.66;100.00
21588;BME280;10956;48.878;13.316;2022-09-20T08:02:24;94504.06;;;9.54;100.00
21588;BME280;10956;48.878;13.316;2022-09-20T08:04:49;94505.09;;;9.53;100.00
21588;BME280;10956;48.878;13.316;2022-09-20T08:07:15;94508.28;;;9.55;100.00
21588;BME280;10956;48.878;13.316;2022-09-20T08:09:40;94503.00;;;9.55;100.00
21588;BME280;10956;48.878;13.316;2022-09-20T08:12:06;94505.09;;;9.53;100.00
21588;BME280;10956;48.878;13.316;2022-09-20T08:14:32;94508.78;;;9.52;100.00
21588;BME280;10956;48.878;13.316;2022-09-20T08:16:58;94510.38;;;9.53;100.00
21588;BME280;10956;48.878;13.316;2022-09-20T08:19:24;94517.78;;;9.61;100.00
21588;BME280;10956;48.878;13.316;2022-09-20T08:21:50;94517.41;;;9.79;100.00
21588;BME280;10956;48.878;13.316;2022-09-20T08:24:17;94512.28;;;9.99;100.00
21588;BME280;10956;48.878;13.316;2022-09-20T08:26:43;94509.72;;;10.10;100.00
21588;BME280;10956;48.878;13.316;2022-09-20T08:29:09;94512.00;;;10.38;100.00
21588;BME280;10956;48.878;13.316;2022-09-20T08:31:37;94504.75;;;10.71;100.00
21588;BME280;10956;48.878;13.316;2022-09-20T08:34:07;94505.38;;;10.98;100.00
21588;BME280;10956;48.878;13.316;2022-09-20T08:36:35;94503.31;;;11.36;100.00
21588;BME280;10956;48.878;13.316;2022-09-20T08:39:01;94504.91;;;11.62;100.00
21588;BME280;10956;48.878;13.316;2022-09-20T08:41:34;94499.13;;;11.85;99.74
21588;BME280;10956;48.878;13.316;2022-09-20T08:44:06;94499.41;;;11.79;100.00
21588;BME280;10956;48.878;13.316;2022-09-20T08:46:38;94505.44;;;11.54;100.00
21588;BME280;10956;48.878;13.316;2022-09-20T08:49:06;94492.75;;;11.30;100.00
21588;BME280;10956;48.878;13.316;2022-09-20T08:51:38;94502.25;;;11.37;100.00
21588;BME280;10956;48.878;13.316;2022-09-20T08:54:05;94504.66;;;11.48;100.00
21588;BME280;10956;48.878;13.316;2022-09-20T08:56:35;94505.44;;;11.49;100.00
21588;BME280;10956;48.878;13.316;2022-09-20T08:59:05;94504.63;;;11.38;100.00
21588;BME280;10956;48.878;13.316;2022-09-20T09:01:35;94495.94;;;11.38;100.00
21588;BME280;10956;48.878;13.316;2022-09-20T09:04:13;94501.75;;;11.70;100.00
21588;BME280;10956;48.878;13.316;2022-09-20T09:06:40;94495.94;;;12.04;100.00
21588;BME280;10956;48.878;13.316;2022-09-20T09:09:06;94499.06;;;12.21;98.75
21588;BME280;10956;48.878;13.316;2022-09-20T09:11:32;94499.88;;;12.16;98.36
21588;BME280;10956;48.878;13.316;2022-09-20T09:14:02;94494.91;;;11.89;97.19
21588;BME280;10956;48.878;13.316;2022-09-20T09:16:32;94506.50;;;11.73;97.55
21588;BME280;10956;48.878;13.316;2022-09-20T09:21:59;94505.97;;;11.46;98.06
21588;BME280;10956;48.878;13.316;2022-09-20T09:24:26;94507.00;;;11.40;98.21
21588;BME280;10956;48.878;13.316;2022-09-20T09:27:14;94512.81;;;11.26;98.77
21588;BME280;10956;48.878;13.316;2022-09-20T09:29:53;94500.09;;;11.03;98.76
21588;BME280;10956;48.878;13.316;2022-09-20T09:32:22;94489.88;;;11.32;97.36
21588;BME280;10956;48.878;13.316;2022-09-20T09:34:48;94479.03;;;11.69;96.17
21588;BME280;10956;48.878;13.316;2022-09-20T09:37:29;94487.50;;;11.81;96.30
21588;BME280;10956;48.878;13.316;2022-09-20T09:40:14;94491.75;;;11.82;95.80
21588;BME280;10956;48.878;13.316;2022-09-20T09:42:48;94498.84;;;11.77;96.27
21588;BME280;10956;48.878;13.316;2022-09-20T09:45:30;94499.63;;;11.67;96.86
21588;BME280;10956;48.878;13.316;2022-09-20T09:47:58;94495.97;;;11.83;94.96
21588;BME280;10956;48.878;13.316;2022-09-20T09:50:33;94498.06;;;11.96;91.80
21588;BME280;10956;48.878;13.316;2022-09-20T09:53:09;94503.34;;;12.02;89.60
21588;BME280;10956;48.878;13.316;2022-09-20T10:01:24;94496.88;;;12.48;86.36
21588;BME280;10956;48.878;13.316;2022-09-20T10:06:26;94497.53;;;12.05;87.59
21588;BME280;10956;48.878;13.316;2022-09-20T10:17:45;94498.03;;;11.41;90.41
21588;BME280;10956;48.878;13.316;2022-09-20T10:20:33;94495.41;;;11.56;90.36
21588;BME280;10956;48.878;13.316;2022-09-20T10:28:48;94490.06;;;12.27;89.98
21588;BME280;10956;48.878;13.316;2022-09-20T10:36:54;94496.47;;;11.50;85.98
21588;BME280;10956;48.878;13.316;2022-09-20T10:39:30;94507.53;;;11.26;88.13
21588;BME280;10956;48.878;13.316;2022-09-20T10:45:31;94514.59;;;11.00;90.58
21588;BME280;10956;48.878;13.316;2022-09-20T11:01:26;94497.63;;;10.66;90.09
21588;BME280;10956;48.878;13.316;2022-09-20T11:09:18;94494.28;;;10.91;93.88
21588;BME280;10956;48.878;13.316;2022-09-20T11:11:49;94500.94;;;11.29;93.57
21588;BME280;10956;48.878;13.316;2022-09-20T11:19:27;94496.84;;;12.58;87.96
21588;BME280;10956;48.878;13.316;2022-09-20T11:22:14;94483.81;;;12.77;87.26
21588;BME280;10956;48.878;13.316;2022-09-20T11:24:46;94493.09;;;12.70;89.33
21588;BME280;10956;48.878;13.316;2022-09-20T11:27:21;94503.75;;;12.49;88.32
21588;BME280;10956;48.878;13.316;2022-09-20T11:29:54;94498.00;;;12.27;89.80
21588;BME280;10956;48.878;13.316;2022-09-20T11:32:29;94520.72;;;12.23;86.96
21588;BME280;10956;48.878;13.316;2022-09-20T11:37:54;94511.34;;;12.71;84.45
21588;BME280;10956;48.878;13.316;2022-09-20T11:40:28;94500.16;;;12.84;83.03
21588;BME280;10956;48.878;13.316;2022-09-20T11:42:58;94508.28;;;13.03;83.03
21588;BME280;10956;48.878;13.316;2022-09-20T11:45:26;94519.94;;;12.97;83.78
21588;BME280;10956;48.878;13.316;2022-09-20T11:47:56;94528.59;;;12.48;84.06
21588;BME280;10956;48.878;13.316;2022-09-20T11:51:14;94521.31;;;11.79;84.71
21588;BME280;10956;48.878;13.316;2022-09-20T11:56:13;94512.00;;;11.26;88.71
21588;BME280;10956;48.878;13.316;2022-09-20T11:58:46;94505.94;;;11.25;90.17
21588;BME280;10956;48.878;13.316;2022-09-20T12:01:15;94495.38;;;11.20;91.52
21588;BME280;10956;48.878;13.316;2022-09-20T12:03:51;94502.75;;;11.13;92.56
21588;BME280;10956;48.878;13.316;2022-09-20T12:06:29;94504.84;;;11.01;90.52
21588;BME280;10956;48.878;13.316;2022-09-20T12:08:59;94502.19;;;10.96;91.07
21588;BME280;10956;48.878;13.316;2022-09-20T12:11:32;94511.41;;;10.93;91.42
21588;BME280;10956;48.878;13.316;2022-09-20T12:14:05;94503.78;;;10.97;90.97
21588;BME280;10956;48.878;13.316;2022-09-20T12:16:49;94498.22;;;10.93;91.09
21588;BME280;10956;48.878;13.316;2022-09-20T12:24:34;94494.03;;;11.08;88.94
21588;BME280;10956;48.878;13.316;2022-09-20T12:32:41;94483.25;;;11.24;89.94
21588;BME280;10956;48.878;13.316;2022-09-20T12:43:31;94479.31;;;12.78;86.08
21588;BME280;10956;48.878;13.316;2022-09-20T12:45:59;94503.78;;;13.04;85.52
21588;BME280;10956;48.878;13.316;2022-09-20T12:48:27;94479.16;;;13.08;83.88
21588;BME280;10956;48.878;13.316;2022-09-20T12:51:01;94487.72;;;12.90;83.66
21588;BME280;10956;48.878;13.316;2022-09-20T12:54:06;94514.06;;;12.51;83.66
21588;BME280;10956;48.878;13.316;2022-09-20T12:56:37;94511.22;;;12.17;84.45
21588;BME280;10956;48.878;13.316;2022-09-20T12:59:05;94509.13;;;12.09;84.43
21588;BME280;10956;48.878;13.316;2022-09-20T13:01:43;94509.16;;;11.88;84.42
21588;BME280;10956;48.878;13.316;2022-09-20T13:07:42;94497.25;;;11.50;85.19
21588;BME280;10956;48.878;13.316;2022-09-20T13:10:26;94489.34;;;11.35;85.83
21588;BME280;10956;48.878;13.316;2022-09-20T13:12:58;94494.34;;;11.31;87.32
21588;BME280;10956;48.878;13.316;2022-09-20T13:15:25;94499.63;;;11.31;87.95
21588;BME280;10956;48.878;13.316;2022-09-20T13:17:52;94493.31;;;11.43;89.06
21588;BME280;10956;48.878;13.316;2022-09-20T13:20:25;94482.22;;;11.61;86.69
21588;BME280;10956;48.878;13.316;2022-09-20T13:22:52;94481.66;;;12.05;85.10
21588;BME280;10956;48.878;13.316;2022-09-20T13:25:18;94492.41;;;12.44;84.86
21588;BME280;10956;48.878;13.316;2022-09-20T13:28:23;94498.94;;;12.67;83.77
21588;BME280;10956;48.878;13.316;2022-09-20T13:30:45;94491.50;;;12.69;82.43
21588;BME280;10956;48.878;13.316;2022-09-20T13:33:21;94490.38;;;12.85;82.62
21588;BME280;10956;48.878;13.316;2022-09-20T13:35:50;94492.16;;;13.00;81.46
21588;BME280;10956;48.878;13.316;2022-09-20T13:38:19;94493.47;;;13.02;80.27
21588;BME280;10956;48.878;13.316;2022-09-20T13:40:49;94491.28;;;13.19;79.44
21588;BME280;10956;48.878;13.316;2022-09-20T13:43:28;94490.19;;;13.25;78.98
21588;BME280;10956;48.878;13.316;2022-09-20T13:45:58;94493.91;;;13.24;77.90
21588;BME280;10956;48.878;13.316;2022-09-20T13:48:28;94493.91;;;13.24;78.21
21588;BME280;10956;48.878;13.316;2022-09-20T13:50:55;94491.06;;;13.06;78.19
21588;BME280;10956;48.878;13.316;2022-09-20T13:53:23;94492.47;;;12.93;79.18
21588;BME280;10956;48.878;13.316;2022-09-20T13:55:49;94488.69;;;13.04;78.73
21588;BME280;10956;48.878;13.316;2022-09-20T13:58:34;94495.03;;;13.08;78.46
21588;BME280;10956;48.878;13.316;2022-09-20T14:01:04;94485.50;;;13.07;78.75
21588;BME280;10956;48.878;13.316;2022-09-20T14:03:32;94489.66;;;13.23;79.02
21588;BME280;10956;48.878;13.316;2022-09-20T14:06:00;94488.59;;;13.24;79.02
21588;BME280;10956;48.878;13.316;2022-09-20T14:08:54;94492.34;;;13.13;80.46
21588;BME280;10956;48.878;13.316;2022-09-20T14:11:26;94483.81;;;13.27;80.46
21588;BME280;10956;48.878;13.316;2022-09-20T14:13:54;94482.22;;;13.31;81.86
21588;BME280;10956;48.878;13.316;2022-09-20T14:16:22;94487.06;;;13.13;85.00
21588;BME280;10956;48.878;13.316;2022-09-20T14:18:49;94491.47;;;12.79;84.91
21588;BME280;10956;48.878;13.316;2022-09-20T14:21:22;94500.88;;;12.41;85.33
21588;BME280;10956;48.878;13.316;2022-09-20T14:23:53;94504.34;;;12.21;85.57
21588;BME280;10956;48.878;13.316;2022-09-20T14:26:32;94502.25;;;12.08;86.98
21588;BME280;10956;48.878;13.316;2022-09-20T14:31:53;94505.94;;;12.27;85.98
21588;BME280;10956;48.878;13.316;2022-09-20T14:34:20;94501.69;;;12.31;85.48
21588;BME280;10956;48.878;13.316;2022-09-20T14:36:47;94501.16;;;12.34;85.41
21588;BME280;10956;48.878;13.316;2022-09-20T14:39:15;94499.53;;;12.43;85.31
21588;BME280;10956;48.878;13.316;2022-09-20T14:41:43;94501.94;;;12.35;86.06
21588;BME280;10956;48.878;13.316;2022-09-20T14:44:30;94498.00;;;12.22;86.98
21588;BME280;10956;48.878;13.316;2022-09-20T14:46:56;94498.03;;;12.12;87.64
21588;BME280;10956;48.878;13.316;2022-09-20T14:51:54;94514.72;;;11.92;89.95
21588;BME280;10956;48.878;13.316;2022-09-20T14:54:39;94514.97;;;11.80;90.88
21588;BME280;10956;48.878;13.316;2022-09-20T14:57:05;94514.16;;;11.64;92.16
21588;BME280;10956;48.878;13.316;2022-09-20T14:59:41;94519.69;;;11.58;92.92
21588;BME280;10956;48.878;13.316;2022-09-20T15:04:34;94519.69;;;11.58;93.34
21588;BME280;10956;48.878;13.316;2022-09-20T15:07:03;94519.69;;;11.58;93.26
21588;BME280;10956;48.878;13.316;2022-09-20T15:09:30;94518.63;;;11.44;94.10
21588;BME280;10956;48.878;13.316;2022-09-20T15:12:00;94522.28;;;11.22;95.92
21588;BME280;10956;48.878;13.316;2022-09-20T15:14:26;94523.31;;;11.11;96.72
21588;BME280;10956;48.878;13.316;2022-09-20T15:16:51;94521.16;;;10.93;97.43
21588;BME280;10956;48.878;13.316;2022-09-20T15:19:16;94520.63;;;10.91;97.74
21588;BME280;10956;48.878;13.316;2022-09-20T15:21:42;94528.53;;;10.86;97.63
21588;BME280;10956;48.878;13.316;2022-09-20T15:24:07;94525.31;;;10.74;97.89
21588;BME280;10956;48.878;13.316;2022-09-20T15:26:33;94518.94;;;10.59;98.83
21588;BME280;10956;48.878;13.316;2022-09-20T15:28:59;94526.28;;;10.52;98.88
21588;BME280;10956;48.878;13.316;2022-09-20T15:31:25;94526.28;;;10.47;99.05
21588;BME280;10956;48.878;13.316;2022-09-20T15:33:51;94524.69;;;10.46;99.38
21588;BME280;10956;48.878;13.316;2022-09-20T15:36:17;94532.59;;;10.46;99.26
21588;BME280;10956;48.878;13.316;2022-09-20T15:38:42;94522.03;;;10.46;99.55
21588;BME280;10956;48.878;13.316;2022-09-20T15:41:07;94518.38;;;10.47;100.00
21588;BME280;10956;48.878;13.316;2022-09-20T15:43:34;94526.78;;;10.44;100.00
21588;BME280;10956;48.878;13.316;2022-09-20T15:46:20;94524.63;;;10.36;100.00
21588;BME280;10956;48.878;13.316;2022-09-20T15:48:46;94526.13;;;10.22;100.00
21588;BME280;10956;48.878;13.316;2022-09-20T15:51:13;94530.22;;;10.08;100.00
21588;BME280;10956;48.878;13.316;2022-09-20T15:53:44;94539.16;;;10.01;100.00
21588;BME280;10956;48.878;13.316;2022-09-20T15:58:43;94539.06;;;9.91;100.00
21588;BME280;10956;48.878;13.316;2022-09-20T16:01:12;94552.78;;;9.93;100.00
21588;BME280;10956;48.878;13.316;2022-09-20T16:03:41;94548.03;;;9.90;100.00
21588;BME280;10956;48.878;13.316;2022-09-20T16:06:07;94559.09;;;9.92;100.00
21588;BME280;10956;48.878;13.316;2022-09-20T16:08:36;94545.41;;;9.95;100.00
21588;BME280;10956;48.878;13.316;2022-09-20T16:11:03;94559.13;;;9.97;100.00
21588;BME280;10956;48.878;13.316;2022-09-20T16:13:29;94552.31;;;10.01;99.63
21588;BME280;10956;48.878;13.316;2022-09-20T16:15:58;94561.75;;;9.97;99.21
21588;BME280;10956;48.878;13.316;2022-09-20T16:18:24;94557.47;;;9.86;98.46
21588;BME280;10956;48.878;13.316;2022-09-20T16:21:09;94564.78;;;9.79;98.31
21588;BME280;10956;48.878;13.316;2022-09-20T16:23:37;94558.94;;;9.72;98.54
21588;BME280;10956;48.878;13.316;2022-09-20T16:26:04;94555.72;;;9.65;98.54
21588;BME280;10956;48.878;13.316;2022-09-20T16:28:30;94554.84;;;9.54;98.66
21588;BME280;10956;48.878;13.316;2022-09-20T16:30:56;94567.16;;;9.49;98.64
21588;BME280;10956;48.878;13.316;2022-09-20T16:33:22;94559.72;;;9.41;99.04
21588;BME280;10956;48.878;13.316;2022-09-20T16:35:47;94565.66;;;9.31;99.66
21588;BME280;10956;48.878;13.316;2022-09-20T16:38:13;94563.78;;;9.26;100.00
21588;BME280;10956;48.878;13.316;2022-09-20T16:40:39;94578.16;;;9.19;100.00
21588;BME280;10956;48.878;13.316;2022-09-20T16:43:04;94574.69;;;9.13;100.00
21588;BME280;10956;48.878;13.316;2022-09-20T16:45:33;94582.03;;;9.11;100.00
21588;BME280;10956;48.878;13.316;2022-09-20T16:47:59;94582.53;;;9.08;100.00
21588;BME280;10956;48.878;13.316;2022-09-20T16:50:27;94586.69;;;9.04;100.00
21588;BME280;10956;48.878;13.316;2022-09-20T16:52:52;94593.84;;;9.09;100.00
21588;BME280;10956;48.878;13.316;2022-09-20T16:55:17;94585.16;;;9.08;100.00
21588;BME280;10956;48.878;13.316;2022-09-20T16:57:48;94594.81;;;9.02;100.00
21588;BME280;10956;48.878;13.316;2022-09-20T17:00:13;94600.25;;;8.96;100.00
21588;BME280;10956;48.878;13.316;2022-09-20T17:02:40;94602.88;;;8.96;100.00
21588;BME280;10956;48.878;13.316;2022-09-20T17:05:06;94604.72;;;8.95;100.00
21588;BME280;10956;48.878;13.316;2022-09-20T17:07:32;94610.16;;;8.89;100.00
21588;BME280;10956;48.878;13.316;2022-09-20T17:09:58;94607.97;;;8.81;100.00
21588;BME280;10956;48.878;13.316;2022-09-20T17:12:26;94609.44;;;8.71;100.00
21588;BME280;10956;48.878;13.316;2022-09-20T17:14:56;94611.19;;;8.66;100.00
21588;BME280;10956;48.878;13.316;2022-09-20T17:17:22;94623.22;;;8.62;100.00
21588;BME280;10956;48.878;13.316;2022-09-20T17:19:47;94630.31;;;8.61;100.00
21588;BME280;10956;48.878;13.316;2022-09-20T17:22:13;94631.28;;;8.55;100.00
21588;BME280;10956;48.878;13.316;2022-09-20T17:24:38;94632.47;;;8.48;100.00
21588;BME280;10956;48.878;13.316;2022-09-20T17:27:03;94637.97;;;8.46;100.00
21588;BME280;10956;48.878;13.316;2022-09-20T17:29:31;94639.56;;;8.47;100.00
21588;BME280;10956;48.878;13.316;2022-09-20T17:31:57;94647.22;;;8.49;100.00
21588;BME280;10956;48.878;13.316;2022-09-20T17:34:24;94645.84;;;8.46;100.00
21588;BME280;10956;48.878;13.316;2022-09-20T17:36:51;94656.59;;;8.45;100.00
21588;BME280;10956;48.878;13.316;2022-09-20T17:39:18;94659.94;;;8.40;100.00
21588;BME280;10956;48.878;13.316;2022-09-20T17:41:47;94666.16;;;8.34;100.00
21588;BME280;10956;48.878;13.316;2022-09-20T17:44:14;94660.25;;;8.27;100.00
21588;BME280;10956;48.878;13.316;2022-09-20T17:46:41;94665.19;;;8.23;100.00
21588;BME280;10956;48.878;13.316;2022-09-20T17:49:12;94664.88;;;8.20;100.00
21588;BME280;10956;48.878;13.316;2022-09-20T17:51:43;94672.19;;;8.18;100.00
21588;BME280;10956;48.878;13.316;2022-09-20T17:54:09;94676.88;;;8.16;100.00
21588;BME280;10956;48.878;13.316;2022-09-20T17:56:42;94674.72;;;8.13;100.00